Time;durP1;ratioP1;P1;durP2;ratioP2;P2;SDS_P1;SDS_P2;PMS_P1;PMS_P2;Temp;Humidity;BMP_temperature;BMP_pressure;BME280_temperature;BME280_humidity;BME280_pressure;Samples;Min_cycle;Max_cycle;Signal;HPM_P1;HPM_P2
2021/11/17 02:26:40;;;;;;;6.77;4.73;;;4.80;99.90;;;;;;4999255;28;20437;-95
2021/11/17 02:29:39;;;;;;;6.27;4.73;;;4.90;99.90;;;;;;4996998;28;20836;-93
2021/11/17 02:32:23;;;;;;;7.93;5.43;;;4.80;99.90;;;;;;5044561;28;20466;-95
2021/11/17 02:35:08;;;;;;;7.37;5.30;;;4.80;99.90;;;;;;5058437;28;20458;-94
2021/11/17 02:37:56;;;;;;;8.57;5.13;;;4.80;99.90;;;;;;5060450;28;20472;-94
2021/11/17 02:40:47;;;;;;;9.83;6.00;;;4.80;99.90;;;;;;5060554;28;20476;-95
2021/11/17 02:43:26;;;;;;;8.53;5.40;;;4.80;99.90;;;;;;5065564;28;20862;-94
2021/11/17 02:46:21;;;;;;;7.60;4.90;;;4.80;99.90;;;;;;5061678;28;20541;-94
2021/11/17 02:49:15;;;;;;;7.57;4.70;;;4.90;99.90;;;;;;5061081;28;20462;-95
2021/11/17 02:51:56;;;;;;;7.30;4.70;;;4.90;99.90;;;;;;5060722;28;20839;-93
2021/11/17 02:54:51;;;;;;;7.13;4.60;;;4.90;99.90;;;;;;5055840;28;20483;-95
2021/11/17 02:57:37;;;;;;;8.43;5.60;;;4.80;99.90;;;;;;5009977;28;20453;-95
2021/11/17 03:00:29;;;;;;;12.03;5.60;;;4.80;99.90;;;;;;5057361;28;20516;-94
2021/11/17 03:03:11;;;;;;;14.80;5.63;;;4.80;99.90;;;;;;5055056;28;20497;-93
2021/11/17 03:05:55;;;;;;;8.43;5.37;;;4.70;99.90;;;;;;5061627;28;20821;-93
2021/11/17 03:08:38;;;;;;;7.77;5.40;;;4.80;99.90;;;;;;5058217;28;20467;-94
2021/11/17 03:11:29;;;;;;;7.40;5.50;;;4.80;99.90;;;;;;5059715;28;20447;-95
2021/11/17 03:14:27;;;;;;;9.20;5.83;;;4.80;99.90;;;;;;5054251;28;20452;-96
2021/11/17 03:17:19;;;;;;;8.43;5.83;;;4.80;99.90;;;;;;5056511;28;20454;-94
2021/11/17 03:20:01;;;;;;;8.53;5.70;;;4.70;99.90;;;;;;5039100;28;20477;-93
2021/11/17 03:22:51;;;;;;;8.43;5.03;;;4.70;99.90;;;;;;5056837;28;20564;-94
2021/11/17 03:25:50;;;;;;;9.03;5.50;;;4.70;99.90;;;;;;5056569;28;20455;-92
2021/11/17 03:28:31;;;;;;;7.53;5.77;;;4.70;99.90;;;;;;5058720;28;20442;-93
2021/11/17 03:31:19;;;;;;;6.73;5.30;;;4.70;99.90;;;;;;5054403;28;20452;-94
2021/11/17 03:34:11;;;;;;;9.50;6.33;;;4.70;99.90;;;;;;5054248;28;20453;-92
2021/11/17 03:37:13;;;;;;;8.30;5.20;;;4.70;99.90;;;;;;5064016;28;20456;-94
2021/11/17 03:40:08;;;;;;;17.30;5.47;;;4.70;99.90;;;;;;5011926;28;20469;-92
2021/11/17 03:43:15;;;;;;;7.63;5.57;;;4.70;99.90;;;;;;5060979;28;20490;-95
2021/11/17 03:46:19;;;;;;;5.90;4.40;;;4.70;99.90;;;;;;5054472;28;20451;-94
2021/11/17 03:48:58;;;;;;;8.10;4.83;;;4.60;99.90;;;;;;5055397;28;20465;-95
2021/11/17 03:51:37;;;;;;;6.63;4.37;;;;;;;;;;5055053;28;20462;-92
2021/11/17 03:54:35;;;;;;;9.20;5.10;;;4.60;99.90;;;;;;5056242;28;20871;-94
2021/11/17 03:57:30;;;;;;;6.50;5.07;;;4.60;99.90;;;;;;5060906;28;20455;-94
2021/11/17 04:00:21;;;;;;;12.40;6.77;;;4.50;99.90;;;;;;5058328;28;20452;-93
2021/11/17 04:03:08;;;;;;;6.73;4.70;;;4.70;99.90;;;;;;5059691;28;20489;-95
2021/11/17 04:05:51;;;;;;;11.33;5.87;;;4.70;99.90;;;;;;5059289;28;20455;-94
2021/11/17 04:08:36;;;;;;;5.70;3.67;;;4.70;99.90;;;;;;5062182;28;20492;-94
2021/11/17 04:11:16;;;;;;;8.20;5.30;;;4.60;99.90;;;;;;5061519;28;20451;-93
2021/11/17 04:13:53;;;;;;;7.17;5.03;;;4.60;99.90;;;;;;5066912;28;20451;-93
2021/11/17 04:16:32;;;;;;;5.57;4.40;;;4.60;99.90;;;;;;5064334;28;20540;-93
2021/11/17 04:19:11;;;;;;;7.10;4.73;;;4.60;99.90;;;;;;5064798;28;20454;-93
2021/11/17 04:22:03;;;;;;;9.97;5.50;;;4.70;99.90;;;;;;5053295;28;20524;-92
2021/11/17 04:24:55;;;;;;;7.77;4.80;;;4.60;99.90;;;;;;5059049;28;20468;-92
2021/11/17 04:27:43;;;;;;;8.20;4.30;;;4.60;99.90;;;;;;5059777;28;20449;-93
2021/11/17 04:30:50;;;;;;;7.00;4.77;;;4.60;99.90;;;;;;5058950;28;20454;-92
2021/11/17 04:33:38;;;;;;;9.10;5.03;;;4.60;99.90;;;;;;5063964;28;20453;-93
2021/11/17 04:36:19;;;;;;;3.87;2.47;;;4.50;99.90;;;;;;5058059;28;20444;-94
2021/11/17 04:39:19;;;;;;;7.33;4.87;;;4.50;99.90;;;;;;5060893;28;20448;-94
2021/11/17 04:42:08;;;;;;;8.37;5.13;;;4.50;99.90;;;;;;5063667;28;20447;-93
2021/11/17 04:44:57;;;;;;;6.27;4.90;;;4.60;99.90;;;;;;5043986;28;20509;-93
2021/11/17 04:47:42;;;;;;;7.40;5.03;;;4.60;99.90;;;;;;5062468;28;20461;-94
2021/11/17 04:50:39;;;;;;;8.70;5.20;;;4.60;99.90;;;;;;5060646;28;20462;-93
2021/11/17 04:53:24;;;;;;;6.43;4.47;;;4.60;99.90;;;;;;5074439;28;20487;-93
2021/11/17 04:56:22;;;;;;;7.33;4.10;;;4.60;99.90;;;;;;5077497;28;20526;-93
2021/11/17 04:59:28;;;;;;;7.17;5.17;;;4.60;99.90;;;;;;5059726;22;20472;-93
2021/11/17 05:02:14;;;;;;;8.63;4.87;;;;;;;;;;5082542;22;20487;-92
2021/11/17 05:04:58;;;;;;;7.93;5.10;;;4.60;99.90;;;;;;5075755;28;20435;-94
2021/11/17 05:07:41;;;;;;;6.00;4.40;;;4.60;99.90;;;;;;5074938;28;20442;-94
2021/11/17 05:10:20;;;;;;;7.10;4.80;;;4.60;99.90;;;;;;5078109;28;20413;-93
2021/11/17 05:12:58;;;;;;;9.87;5.40;;;4.60;99.90;;;;;;5083439;22;20481;-92
2021/11/17 05:15:37;;;;;;;6.87;4.93;;;4.60;99.90;;;;;;5029691;28;20473;-93
2021/11/17 05:18:14;;;;;;;7.17;4.13;;;4.60;99.90;;;;;;5074940;28;20434;-92
2021/11/17 05:20:54;;;;;;;8.30;6.00;;;4.60;99.90;;;;;;5096507;22;20489;-95
2021/11/17 05:23:48;;;;;;;6.80;5.13;;;4.60;99.90;;;;;;5080331;22;20486;-94
2021/11/17 05:26:28;;;;;;;5.63;4.10;;;4.70;99.90;;;;;;5073545;28;20910;-92
2021/11/17 05:29:09;;;;;;;8.67;6.03;;;4.60;99.90;;;;;;5074690;28;20457;-93
2021/11/17 05:31:52;;;;;;;7.90;4.70;;;4.60;99.90;;;;;;5074256;28;20439;-94
2021/11/17 05:34:49;;;;;;;7.17;5.40;;;4.60;99.90;;;;;;5073161;28;20446;-93
2021/11/17 05:37:46;;;;;;;8.33;5.07;;;4.60;99.90;;;;;;5074002;28;20460;-94
2021/11/17 05:40:34;;;;;;;8.33;5.30;;;4.60;99.90;;;;;;5073416;28;20455;-93
2021/11/17 05:43:13;;;;;;;8.23;5.10;;;4.60;99.90;;;;;;5074201;28;20463;-95
2021/11/17 05:45:53;;;;;;;9.50;4.80;;;4.60;99.90;;;;;;5072602;28;20457;-95
2021/11/17 05:51:15;;;;;;;7.33;4.77;;;4.70;99.90;;;;;;5081081;22;20585;-94
2021/11/17 05:53:57;;;;;;;6.67;4.37;;;4.60;99.90;;;;;;5043301;28;20213;-94
2021/11/17 05:56:45;;;;;;;7.13;4.53;;;4.60;99.90;;;;;;5075318;28;20461;-93
2021/11/17 05:59:34;;;;;;;7.53;5.00;;;4.60;99.90;;;;;;5060831;28;20452;-93
2021/11/17 06:02:25;;;;;;;6.90;5.03;;;4.60;99.90;;;;;;5060837;28;20465;-92
2021/11/17 06:04:53;;;;;;;6.17;4.20;;;;;;;;;;5063578;28;20452;-92
2021/11/17 06:07:20;;;;;;;10.43;5.60;;;;;;;;;;5065569;28;20461;-92
2021/11/17 06:09:49;;;;;;;9.73;4.17;;;4.70;99.90;;;;;;5066213;28;20870;-92
2021/11/17 06:12:35;;;;;;;7.67;5.40;;;;;;;;;;5067628;28;20454;-92
2021/11/17 06:15:11;;;;;;;8.10;5.40;;;4.80;99.90;;;;;;5065916;28;20467;-92
2021/11/17 06:17:39;;;;;;;9.77;5.30;;;4.70;99.90;;;;;;5063798;28;20540;-93
2021/11/17 06:20:10;;;;;;;7.17;4.70;;;5.40;99.90;;;;;;5063220;28;20454;-94
2021/11/17 06:22:38;;;;;;;12.20;4.83;;;;;;;;;;5063906;28;20498;-93
2021/11/17 06:25:09;;;;;;;6.13;4.43;;;4.90;99.90;;;;;;5066510;28;20805;-92
2021/11/17 06:27:39;;;;;;;7.47;5.57;;;4.90;99.90;;;;;;5055215;28;20466;-90
2021/11/17 06:30:12;;;;;;;11.33;5.73;;;4.90;99.90;;;;;;5065758;28;20458;-92
2021/11/17 06:32:40;;;;;;;8.80;6.10;;;4.90;99.90;;;;;;5062712;28;20465;-94
2021/11/17 06:35:10;;;;;;;13.80;6.17;;;4.80;99.90;;;;;;5064240;28;20811;-93
2021/11/17 06:37:39;;;;;;;9.07;5.40;;;4.80;99.90;;;;;;5065062;28;20447;-92
2021/11/17 06:40:15;;;;;;;8.90;5.63;;;4.80;99.90;;;;;;5066736;28;20458;-93
2021/11/17 06:42:46;;;;;;;9.50;5.30;;;4.80;99.90;;;;;;5074024;22;20486;-91
2021/11/17 06:45:20;;;;;;;12.47;6.40;;;4.80;99.90;;;;;;5061420;28;20455;-92
2021/11/17 06:47:48;;;;;;;20.13;6.20;;;;;;;;;;5032286;28;20445;-91
2021/11/17 06:50:19;;;;;;;14.73;5.27;;;4.90;99.90;;;;;;5058127;28;20460;-91
2021/11/17 06:52:47;;;;;;;16.63;5.90;;;;;;;;;;5066730;28;20963;-92
2021/11/17 06:55:18;;;;;;;14.83;5.33;;;4.80;99.90;;;;;;5048214;28;20444;-90
2021/11/17 06:57:47;;;;;;;7.33;4.50;;;4.80;99.90;;;;;;5067302;28;20454;-91
2021/11/17 07:00:42;;;;;;;7.03;4.67;;;4.80;99.90;;;;;;5067100;28;20453;-92
2021/11/17 07:03:10;;;;;;;6.40;4.30;;;4.70;99.90;;;;;;5026832;28;20528;-92
2021/11/17 07:05:41;;;;;;;4.70;3.83;;;;;;;;;;5029008;28;20517;-91
2021/11/17 07:08:09;;;;;;;4.80;3.80;;;4.70;99.90;;;;;;5026392;28;20454;-91
2021/11/17 07:10:41;;;;;;;8.90;4.50;;;4.70;99.90;;;;;;5025500;28;20460;-91
2021/11/17 07:13:09;;;;;;;7.00;4.30;;;;;;;;;;5007032;28;20484;-90
2021/11/17 07:15:41;;;;;;;9.33;4.30;;;4.70;99.90;;;;;;5024271;28;20453;-92
2021/11/17 07:20:55;;;;;;;6.27;3.80;;;;;;;;;;5032258;28;20454;-93
2021/11/17 07:23:23;;;;;;;5.67;3.47;;;;;;;;;;5025135;28;20482;-92
2021/11/17 07:43:49;;;;;;;6.77;4.40;;;;;;;;;;4968654;29;20460;-93
2021/11/17 07:48:58;;;;;;;8.97;4.00;;;;;;;;;;4960918;29;20454;-92
2021/11/17 07:51:26;;;;;;;4.90;3.80;;;4.80;99.90;;;;;;4961658;29;20451;-91
2021/11/17 07:53:53;;;;;;;7.63;5.30;;;;;;;;;;4959579;28;20489;-91
2021/11/17 07:56:22;;;;;;;5.70;3.90;;;;;;;;;;4936958;29;20448;-93
2021/11/17 08:01:26;;;;;;;9.07;5.37;;;4.80;99.90;;;;;;4994769;28;20483;-91
2021/11/17 08:03:53;;;;;;;6.83;4.17;;;;;;;;;;4996700;28;20467;-93
2021/11/17 08:06:47;;;;;;;7.10;4.13;;;4.80;99.90;;;;;;5035041;23;20495;-91
2021/11/17 08:09:18;;;;;;;8.90;4.20;;;4.80;99.90;;;;;;5040488;28;20453;-90
2021/11/17 08:11:47;;;;;;;9.60;4.50;;;;;;;;;;5038905;28;20536;-91
2021/11/17 08:14:18;;;;;;;5.33;3.50;;;;;;;;;;5050819;28;20550;-93
2021/11/17 08:16:45;;;;;;;5.73;4.10;;;;;;;;;;5087597;22;20446;-93
2021/11/17 08:19:12;;;;;;;7.53;4.27;;;;;;;;;;4968366;28;20483;-92
2021/11/17 08:21:39;;;;;;;6.13;3.70;;;;;;;;;;4958805;28;20476;-93
2021/11/17 08:24:07;;;;;;;8.73;4.27;;;;;;;;;;5192992;22;20498;-91
2021/11/17 08:26:34;;;;;;;5.30;3.13;;;;;;;;;;5015515;22;20489;-92
2021/11/17 08:29:05;;;;;;;8.10;3.77;;;;;;;;;;4994812;28;20466;-92
2021/11/17 08:31:32;;;;;;;6.83;3.43;;;;;;;;;;4989679;28;20453;-91
2021/11/17 08:34:01;;;;;;;7.23;3.33;;;;;;;;;;4994580;23;20505;-92
2021/11/17 08:36:29;;;;;;;7.20;4.43;;;;;;;;;;5042358;28;20450;-92
2021/11/17 08:38:56;;;;;;;6.07;3.20;;;;;;;;;;5037364;28;20467;-91
2021/11/17 08:41:25;;;;;;;8.53;4.13;;;5.20;99.90;;;;;;5039819;28;20465;-91
2021/11/17 08:43:53;;;;;;;5.10;3.47;;;;;;;;;;5036333;28;20483;-92
2021/11/17 08:46:22;;;;;;;4.90;3.77;;;5.20;99.90;;;;;;5027358;28;20469;-92
2021/11/17 08:49:04;;;;;;;4.23;3.10;;;5.20;99.90;;;;;;5028645;28;20453;-92
2021/11/17 08:51:34;;;;;;;7.77;3.27;;;;;;;;;;5026182;28;20942;-91
2021/11/17 08:54:02;;;;;;;3.37;2.97;;;;;;;;;;5026636;28;20489;-92
2021/11/17 08:56:32;;;;;;;4.33;2.90;;;5.20;99.90;;;;;;5025568;28;20446;-92
2021/11/17 08:58:59;;;;;;;3.90;2.97;;;;;;;;;;5026548;28;20540;-93
2021/11/17 09:01:27;;;;;;;5.37;2.93;;;;;;;;;;5025942;28;20461;-92
2021/11/17 09:03:55;;;;;;;4.97;2.87;;;;;;;;;;5023355;28;20462;-92
2021/11/17 09:06:24;;;;;;;3.67;3.07;;;;;;;;;;5023121;28;20454;-94
2021/11/17 09:08:54;;;;;;;5.57;2.83;;;;;;;;;;4992583;28;20455;-93
2021/11/17 09:11:23;;;;;;;5.00;3.03;;;;;;;;;;5030110;28;20442;-91
2021/11/17 09:13:50;;;;;;;5.90;2.40;;;;;;;;;;5025410;28;20506;-91
2021/11/17 09:16:18;;;;;;;4.07;2.73;;;4.90;99.90;;;;;;5025504;28;20462;-90
2021/11/17 09:18:50;;;;;;;3.70;2.80;;;;;;;;;;5021269;28;20462;-93
2021/11/17 09:21:19;;;;;;;3.33;2.23;;;4.90;99.90;;;;;;5020682;28;20448;-92
2021/11/17 09:23:46;;;;;;;1.77;1.47;;;4.80;99.90;;;;;;5021897;28;20469;-92
2021/11/17 09:26:14;;;;;;;7.80;2.20;;;;;;;;;;5021035;28;20823;-91
2021/11/17 09:28:42;;;;;;;5.67;2.40;;;;;;;;;;5022350;28;20458;-91
2021/11/17 09:31:09;;;;;;;5.10;2.17;;;;;;;;;;5024030;28;20455;-91
2021/11/17 09:33:38;;;;;;;2.07;1.40;;;;;;;;;;5023657;28;20495;-91
2021/11/17 09:36:08;;;;;;;3.00;2.20;;;4.80;99.90;;;;;;5023092;22;20446;-92
2021/11/17 09:38:35;;;;;;;3.23;1.77;;;;;;;;;;4967426;28;20467;-91
2021/11/17 09:41:06;;;;;;;3.03;2.17;;;4.90;99.90;;;;;;4974599;28;20588;-92
2021/11/17 09:43:35;;;;;;;1.80;1.50;;;4.80;99.90;;;;;;4963012;28;20858;-91
2021/11/17 09:46:03;;;;;;;3.77;2.30;;;;;;;;;;4975050;28;20435;-92
2021/11/17 09:48:34;;;;;;;1.50;1.03;;;4.70;99.90;;;;;;4976281;28;20467;-92
2021/11/17 09:51:05;;;;;;;2.37;1.70;;;4.70;99.90;;;;;;4963787;28;20474;-90
2021/11/17 09:53:41;;;;;;;5.13;3.23;;;;;;;;;;4963725;28;20489;-91
2021/11/17 09:56:11;;;;;;;1.93;1.67;;;4.70;99.90;;;;;;4961808;28;20465;-93
2021/11/17 09:58:40;;;;;;;2.43;1.73;;;4.80;99.90;;;;;;4962683;28;20463;-92
2021/11/17 10:01:22;;;;;;;4.63;2.10;;;4.70;99.90;;;;;;4966849;28;20465;-92
2021/11/17 10:03:54;;;;;;;2.00;1.60;;;4.80;99.90;;;;;;4971394;28;20476;-93
2021/11/17 10:07:05;;;;;;;2.27;1.77;;;4.80;99.90;;;;;;4961521;29;20454;-90
2021/11/17 10:15:15;;;;;;;3.10;2.53;;;4.90;99.90;;;;;;4964916;28;20952;-92
2021/11/17 10:17:46;;;;;;;4.10;2.50;;;4.90;99.90;;;;;;4973331;28;20500;-92
2021/11/17 10:20:20;;;;;;;2.83;2.00;;;4.90;99.90;;;;;;4963801;28;20459;-92
2021/11/17 10:22:49;;;;;;;2.20;1.83;;;;;;;;;;4962654;29;20456;-91
2021/11/17 10:25:22;;;;;;;1.70;1.53;;;4.90;99.90;;;;;;4963203;28;20446;-92
2021/11/17 10:27:53;;;;;;;2.37;1.80;;;4.90;99.90;;;;;;4961651;28;20450;-92
2021/11/17 10:30:31;;;;;;;2.70;2.30;;;5.00;99.90;;;;;;4961124;28;20456;-91
2021/11/17 10:33:07;;;;;;;3.50;1.80;;;5.10;99.90;;;;;;4969484;28;20460;-91
2021/11/17 10:35:38;;;;;;;1.80;1.40;;;5.10;99.90;;;;;;4967618;28;20460;-91
2021/11/17 10:38:08;;;;;;;1.93;1.53;;;5.10;99.90;;;;;;4973063;28;20497;-92
2021/11/17 10:40:47;;;;;;;3.53;1.70;;;5.10;99.90;;;;;;4964729;28;20457;-94
2021/11/17 10:43:20;;;;;;;3.27;1.90;;;5.10;99.90;;;;;;4974065;28;20463;-93
2021/11/17 10:45:51;;;;;;;1.50;1.33;;;5.10;99.90;;;;;;4977997;28;20458;-92
2021/11/17 10:48:21;;;;;;;2.10;1.70;;;5.20;99.90;;;;;;4973608;28;20473;-92
2021/11/17 10:50:48;;;;;;;1.63;1.43;;;;;;;;;;4976317;28;20460;-92
2021/11/17 10:53:27;;;;;;;2.80;1.47;;;5.50;99.90;;;;;;4966658;28;20490;-92
2021/11/17 10:55:59;;;;;;;2.50;2.30;;;5.50;99.90;;;;;;4974557;28;20452;-91
2021/11/17 10:58:29;;;;;;;2.97;2.00;;;5.70;99.90;;;;;;4974869;28;20464;-91
2021/11/17 11:01:00;;;;;;;2.90;1.67;;;5.50;99.90;;;;;;5021764;23;20867;-93
2021/11/17 11:03:30;;;;;;;1.50;1.40;;;5.40;99.90;;;;;;5026527;28;20493;-92
2021/11/17 11:06:04;;;;;;;2.27;1.33;;;5.30;99.90;;;;;;5022658;28;20435;-91
2021/11/17 11:08:35;;;;;;;1.53;1.10;;;5.30;99.90;;;;;;5023806;28;20443;-91
2021/11/17 11:11:10;;;;;;;1.60;1.50;;;5.40;99.90;;;;;;5026493;28;20443;-91
2021/11/17 11:13:44;;;;;;;1.63;1.50;;;5.50;99.90;;;;;;5025523;28;20489;-92
2021/11/17 11:16:20;;;;;;;1.47;1.20;;;5.60;99.90;;;;;;5002506;28;20514;-91
2021/11/17 11:18:51;;;;;;;1.67;1.30;;;5.50;99.90;;;;;;5005375;28;20462;-92
2021/11/17 11:21:38;;;;;;;1.63;1.23;;;5.40;99.90;;;;;;5007585;28;20459;-92
2021/11/17 11:24:17;;;;;;;1.47;1.33;;;5.50;99.90;;;;;;5003910;28;20456;-91
2021/11/17 11:27:19;;;;;;;1.50;1.30;;;5.50;99.90;;;;;;5021532;22;20491;-92
2021/11/17 11:29:49;;;;;;;1.70;0.70;;;5.40;99.90;;;;;;5022341;28;20450;-92
2021/11/17 11:32:44;;;;;;;2.03;1.33;;;5.40;99.90;;;;;;5023574;28;20457;-93
2021/11/17 11:35:25;;;;;;;8.50;1.30;;;5.40;99.90;;;;;;5008428;28;20499;-91
2021/11/17 11:38:03;;;;;;;1.37;1.00;;;5.50;99.90;;;;;;5020818;28;20459;-91
2021/11/17 11:41:09;;;;;;;1.30;1.20;;;5.50;99.90;;;;;;5023645;28;20458;-91
2021/11/17 11:43:45;;;;;;;2.30;1.30;;;5.50;99.90;;;;;;5028665;28;20475;-91
2021/11/17 11:46:32;;;;;;;1.13;1.03;;;5.50;99.90;;;;;;4992728;28;20469;-91
2021/11/17 11:49:10;;;;;;;1.00;0.80;;;4.60;99.90;;;;;;5028328;28;20874;-91
2021/11/17 11:51:54;;;;;;;0.90;0.80;;;5.40;99.90;;;;;;5026824;28;20454;-91
2021/11/17 11:54:50;;;;;;;1.57;1.10;;;5.40;99.90;;;;;;5028328;28;20487;-91
2021/11/17 11:57:29;;;;;;;1.70;1.47;;;;;;;;;;5028019;28;20482;-91
2021/11/17 12:00:00;;;;;;;1.00;0.77;;;5.40;99.90;;;;;;5048921;22;20477;-90
2021/11/17 12:02:29;;;;;;;2.30;1.20;;;;;;;;;;5066579;28;20453;-91
2021/11/17 12:04:59;;;;;;;6.47;3.03;;;5.50;99.90;;;;;;5064969;28;20481;-91
2021/11/17 12:07:30;;;;;;;2.00;1.83;;;5.50;99.90;;;;;;5063933;28;20445;-92
2021/11/17 12:10:05;;;;;;;2.30;1.10;;;5.40;99.90;;;;;;5063095;28;20475;-91
2021/11/17 12:12:35;;;;;;;1.40;1.30;;;5.20;99.90;;;;;;5061803;28;20969;-90
2021/11/17 12:15:17;;;;;;;9.80;5.23;;;;;;;;;;5065776;23;20579;-91
2021/11/17 12:17:46;;;;;;;2.40;1.33;;;;;;;;;;5000362;28;20454;-92
2021/11/17 12:20:24;;;;;;;2.20;1.50;;;5.30;99.90;;;;;;5003148;28;20447;-92
2021/11/17 12:22:53;;;;;;;4.83;2.83;;;5.30;99.90;;;;;;5005596;28;20461;-91
2021/11/17 12:25:24;;;;;;;4.00;1.80;;;5.10;99.90;;;;;;4995740;28;20455;-91
2021/11/17 12:27:58;;;;;;;2.00;1.53;;;5.20;99.90;;;;;;4995754;28;20475;-91
2021/11/17 12:30:35;;;;;;;2.30;1.90;;;5.20;99.90;;;;;;5006006;28;20467;-92
2021/11/17 12:33:13;;;;;;;2.53;1.87;;;5.20;99.90;;;;;;4992003;22;20496;-92
2021/11/17 12:35:43;;;;;;;2.00;1.43;;;5.10;99.90;;;;;;4964496;28;20497;-91
2021/11/17 12:38:13;;;;;;;2.17;1.63;;;5.10;99.90;;;;;;4964906;29;20453;-91
2021/11/17 12:40:44;;;;;;;2.00;1.30;;;5.10;99.90;;;;;;5013363;23;20499;-91
2021/11/17 12:43:14;;;;;;;3.00;1.40;;;5.00;99.90;;;;;;5022702;28;20959;-92
2021/11/17 12:45:50;;;;;;;2.10;1.60;;;5.30;99.90;;;;;;5022307;28;20473;-92
2021/11/17 12:48:26;;;;;;;2.93;1.60;;;5.30;99.90;;;;;;5019943;28;20446;-91
2021/11/17 12:50:57;;;;;;;1.43;1.30;;;5.30;99.90;;;;;;5026192;28;20947;-94
2021/11/17 12:53:35;;;;;;;1.77;1.53;;;;;;;;;;5033809;28;20457;-93
2021/11/17 12:56:07;;;;;;;1.77;1.10;;;5.50;99.90;;;;;;5028529;28;20463;-94
2021/11/17 12:58:39;;;;;;;1.53;1.33;;;5.40;99.90;;;;;;4994213;22;21036;-93
2021/11/17 13:01:27;;;;;;;2.10;1.37;;;5.50;99.90;;;;;;4965418;28;20454;-92
2021/11/17 13:04:02;;;;;;;3.03;1.43;;;5.50;99.90;;;;;;4966758;28;20454;-91
2021/11/17 13:06:31;;;;;;;1.57;1.10;;;5.60;99.90;;;;;;4975668;28;20535;-92
2021/11/17 13:09:12;;;;;;;1.23;1.13;;;5.50;99.90;;;;;;4972969;28;20529;-93
2021/11/17 13:12:19;;;;;;;1.60;1.20;;;5.50;99.90;;;;;;5016874;23;20931;-93
2021/11/17 13:15:07;;;;;;;1.60;1.23;;;5.40;99.90;;;;;;5024932;28;20557;-93
2021/11/17 13:17:42;;;;;;;1.20;1.07;;;5.40;99.90;;;;;;5027491;28;20467;-93
2021/11/17 13:20:38;;;;;;;2.70;1.50;;;5.50;99.90;;;;;;5028832;28;20511;-93
2021/11/17 13:25:49;;;;;;;1.60;1.10;;;5.40;99.90;;;;;;4972649;22;20564;-92
2021/11/17 13:28:37;;;;;;;1.57;1.17;;;5.40;99.90;;;;;;4971746;28;20220;-94
2021/11/17 13:31:40;;;;;;;1.10;1.00;;;5.30;99.90;;;;;;4969607;28;20926;-94
2021/11/17 13:34:12;;;;;;;2.00;1.60;;;5.30;99.90;;;;;;4964881;29;20484;-92
2021/11/17 13:37:14;;;;;;;1.67;1.27;;;5.30;99.90;;;;;;4964424;28;20474;-93
2021/11/17 13:42:43;;;;;;;2.20;1.50;;;5.30;99.90;;;;;;4972018;28;20950;-94
2021/11/17 13:45:18;;;;;;;2.20;1.57;;;5.20;99.90;;;;;;4970734;28;20498;-93
2021/11/17 13:47:51;;;;;;;1.63;1.40;;;5.30;99.90;;;;;;4976053;28;20454;-91
2021/11/17 13:50:25;;;;;;;2.00;1.70;;;5.40;99.90;;;;;;4964693;28;20458;-92
2021/11/17 13:52:55;;;;;;;2.20;1.30;;;5.30;99.90;;;;;;4965808;28;20461;-92
2021/11/17 13:55:25;;;;;;;2.03;1.40;;;5.40;99.90;;;;;;4965157;28;21050;-90
2021/11/17 13:57:57;;;;;;;2.20;1.50;;;5.50;99.90;;;;;;4966499;28;20476;-91
2021/11/17 14:00:26;;;;;;;2.00;1.57;;;5.40;99.90;;;;;;4977541;28;20459;-90
2021/11/17 14:02:58;;;;;;;2.37;2.03;;;;;;;;;;4969210;28;20460;-91
2021/11/17 14:08:12;;;;;;;2.20;1.83;;;5.20;99.90;;;;;;4977578;28;20457;-92
2021/11/17 14:10:50;;;;;;;2.17;1.77;;;;;;;;;;4969574;28;20450;-94
2021/11/17 14:13:21;;;;;;;2.40;1.93;;;5.20;99.90;;;;;;5004871;28;20474;-92
2021/11/17 14:18:39;;;;;;;4.10;2.20;;;;;;;;;;4974417;28;20440;-92
2021/11/17 14:21:08;;;;;;;3.83;2.27;;;5.50;99.90;;;;;;5024845;23;20491;-92
2021/11/17 14:23:39;;;;;;;1.73;1.50;;;5.50;99.90;;;;;;5026195;28;20459;-92
2021/11/17 14:28:36;;;;;;;2.80;1.80;;;5.30;99.90;;;;;;4968535;22;20484;-92
2021/11/17 14:31:09;;;;;;;2.03;1.40;;;5.30;99.90;;;;;;4977128;28;20237;-93
2021/11/17 14:33:36;;;;;;;3.07;2.10;;;;;;;;;;4970186;29;20461;-92
2021/11/17 14:36:10;;;;;;;2.50;2.20;;;5.30;99.90;;;;;;4963700;28;20501;-91
2021/11/17 14:38:38;;;;;;;2.37;2.10;;;;;;;;;;4965662;29;20458;-92
2021/11/17 14:41:08;;;;;;;3.20;2.00;;;5.30;99.90;;;;;;5030012;23;20577;-91
2021/11/17 14:43:35;;;;;;;3.57;2.20;;;5.30;99.90;;;;;;5025826;28;20447;-92
2021/11/17 14:48:57;;;;;;;4.20;2.73;;;5.30;99.90;;;;;;5211405;27;20543;-92
2021/11/17 14:51:24;;;;;;;3.70;2.67;;;;;;;;;;5189585;27;20460;-91
2021/11/17 14:53:53;;;;;;;4.80;4.10;;;5.30;99.90;;;;;;5190055;27;20453;-91
2021/11/17 14:56:21;;;;;;;3.70;2.70;;;;;;;;;;5189516;27;20436;-92
2021/11/17 14:58:48;;;;;;;3.23;2.67;;;;;;;;;;5186410;27;20452;-92
2021/11/17 15:01:18;;;;;;;3.40;2.63;;;5.40;99.90;;;;;;5178700;27;20441;-91
2021/11/17 15:03:47;;;;;;;4.57;3.80;;;5.40;99.90;;;;;;5179851;27;20457;-93
2021/11/17 15:06:18;;;;;;;1.60;1.20;;;5.30;99.90;;;;;;5180957;27;20450;-93
2021/11/17 15:08:46;;;;;;;3.27;2.30;;;;;;;;;;5185509;27;20525;-93
2021/11/17 15:11:14;;;;;;;5.00;2.33;;;5.30;99.90;;;;;;5167478;27;20466;-91
2021/11/17 15:13:42;;;;;;;5.40;3.17;;;5.40;99.90;;;;;;5165316;22;20501;-92
2021/11/17 15:16:11;;;;;;;4.13;3.10;;;5.30;99.90;;;;;;5135713;28;20462;-92
2021/11/17 15:18:40;;;;;;;4.60;3.00;;;5.30;99.90;;;;;;5135667;28;20534;-93
2021/11/17 15:21:08;;;;;;;3.20;2.37;;;5.30;99.90;;;;;;5138251;28;20470;-93
2021/11/17 15:23:36;;;;;;;4.70;2.50;;;5.20;99.90;;;;;;5075175;28;20445;-91
2021/11/17 15:26:04;;;;;;;5.47;2.57;;;5.30;99.90;;;;;;5071469;28;20482;-92
2021/11/17 15:28:33;;;;;;;8.53;3.53;;;5.40;99.90;;;;;;5075035;28;20497;-92
2021/11/17 15:31:04;;;;;;;6.20;3.73;;;5.30;99.90;;;;;;5083486;28;20493;-92
2021/11/17 15:33:32;;;;;;;5.00;3.33;;;5.20;99.90;;;;;;5106136;28;20422;-91
2021/11/17 15:36:02;;;;;;;5.00;3.20;;;5.20;99.90;;;;;;5124158;22;20491;-92
2021/11/17 15:38:29;;;;;;;5.63;3.37;;;;;;;;;;5119772;28;20459;-93
2021/11/17 15:41:00;;;;;;;2.90;2.30;;;5.30;99.90;;;;;;5124102;28;20455;-90
2021/11/17 15:43:28;;;;;;;4.20;2.50;;;5.30;99.90;;;;;;5117969;28;20479;-91
2021/11/17 15:45:56;;;;;;;3.83;2.93;;;;;;;;;;5112569;28;20459;-92
2021/11/17 15:48:35;;;;;;;3.47;2.30;;;5.40;99.90;;;;;;5120049;28;20488;-91
2021/11/17 15:51:05;;;;;;;3.67;2.50;;;5.10;99.90;;;;;;5121677;28;20446;-92
2021/11/17 15:53:34;;;;;;;4.37;3.07;;;;;;;;;;5117893;28;20435;-92
2021/11/17 15:56:02;;;;;;;2.10;1.90;;;;;;;;;;5118067;28;20469;-91
2021/11/17 15:58:29;;;;;;;2.87;2.23;;;;;;;;;;5120974;28;20456;-92
2021/11/17 16:00:57;;;;;;;3.20;2.40;;;;;;;;;;5118897;22;20522;-91
2021/11/17 16:03:26;;;;;;;3.70;2.87;;;5.20;99.90;;;;;;5129781;28;20443;-90
2021/11/17 16:05:54;;;;;;;3.13;2.50;;;5.20;99.90;;;;;;5135471;28;20946;-92
2021/11/17 16:08:22;;;;;;;3.43;2.60;;;5.10;99.90;;;;;;5135806;28;20477;-91
2021/11/17 16:10:49;;;;;;;4.87;2.83;;;;;;;;;;5129472;28;20479;-91
2021/11/17 16:15:44;;;;;;;3.23;2.60;;;5.20;99.90;;;;;;5127496;22;20475;-91
2021/11/17 16:18:13;;;;;;;3.60;2.70;;;5.20;99.90;;;;;;5126127;28;20201;-91
2021/11/17 16:20:49;;;;;;;3.10;2.43;;;5.20;99.90;;;;;;5123469;28;20450;-93
2021/11/17 16:26:02;;;;;;;2.33;2.07;;;5.30;99.90;;;;;;5129630;28;20432;-90
2021/11/17 16:28:34;;;;;;;5.17;2.83;;;5.30;99.90;;;;;;5126522;22;20488;-91
2021/11/17 16:31:03;;;;;;;3.13;2.63;;;;;;;;;;5113528;28;20452;-91
2021/11/17 16:33:34;;;;;;;3.73;2.50;;;;;;;;;;5137386;22;20487;-91
2021/11/17 16:36:03;;;;;;;3.50;2.80;;;5.10;99.90;;;;;;5124277;28;20450;-91
2021/11/17 16:38:30;;;;;;;5.90;2.63;;;;;;;;;;5121086;28;20460;-91
2021/11/17 16:41:00;;;;;;;2.77;2.50;;;;;;;;;;5123259;28;20440;-91
2021/11/17 16:43:36;;;;;;;2.97;2.23;;;;;;;;;;5127508;28;20513;-91
2021/11/17 16:46:10;;;;;;;3.47;2.77;;;5.20;99.90;;;;;;5131397;28;20500;-91
2021/11/17 16:48:48;;;;;;;2.40;2.10;;;;;;;;;;5124877;28;21053;-92
2021/11/17 16:51:16;;;;;;;2.87;2.53;;;5.10;99.90;;;;;;5126192;28;20456;-90
2021/11/17 16:53:46;;;;;;;3.20;2.40;;;;;;;;;;5125805;28;20455;-91
2021/11/17 16:56:28;;;;;;;4.07;3.10;;;5.30;99.90;;;;;;5137052;22;20486;-91
2021/11/17 16:58:56;;;;;;;6.00;4.57;;;;;;;;;;5126160;28;20455;-93
2021/11/17 17:01:32;;;;;;;5.60;4.10;;;5.20;99.90;;;;;;5124121;28;20455;-91
2021/11/17 17:03:59;;;;;;;5.50;4.30;;;;;;;;;;5125603;28;20448;-91
2021/11/17 17:06:29;;;;;;;4.60;3.87;;;5.30;99.90;;;;;;5123053;28;20533;-92
2021/11/17 17:08:58;;;;;;;28.43;16.90;;;5.20;99.90;;;;;;5125455;28;20490;-90
2021/11/17 17:11:25;;;;;;;12.63;8.77;;;;;;;;;;5125779;28;20475;-90
2021/11/17 17:13:55;;;;;;;7.83;5.67;;;5.30;99.90;;;;;;5126541;28;20802;-90
2021/11/17 17:16:27;;;;;;;6.97;4.10;;;5.20;99.90;;;;;;5117859;22;20590;-90
2021/11/17 17:18:54;;;;;;;9.00;6.57;;;;;;;;;;5100798;28;20965;-90
2021/11/17 17:21:21;;;;;;;9.47;5.40;;;;;;;;;;5105161;28;20445;-92
2021/11/17 17:23:48;;;;;;;6.80;5.47;;;;;;;;;;5096798;28;20449;-91
2021/11/17 17:26:18;;;;;;;7.00;4.07;;;5.20;99.90;;;;;;5101191;28;20453;-91
2021/11/17 17:28:45;;;;;;;11.47;7.33;;;5.20;99.90;;;;;;5099407;28;20488;-91